Weather observations for the past three days for
Block Island State Airport
Imperial (Metric)
Date Time (edt) Wind (mph) Vis. (mi.) Weather Sky Cond. Temperature (ºF) Relative Humidity Wind Chill (°F) Heat Index (°F) Pressure Precipitation (in)
Air Dwpt 6 hour altimeter (in) sea level (mb) 1 hr 3 hr 6 hr
Max. Min.
15 04:56 SW 13 10.00 Fair CLR 70 69.1 97% 0 0.0
15 03:56 SW 12 10.00 Fair CLR 71.1 69.1 94% 0 0.0
15 02:56 SW 13 10.00 Fair CLR 70 70 100% 0 0.0
15 01:56 SW 10 0.75 Fog/Mist OVC001 71.1 71.1 75 71.1 100% 0 0.0
15 00:56 SW 9 0.50 Fog OVC003 72 71.1 97% 0 0.0
14 23:56 SW 10 0.50 Fog OVC003 72 71.1 97% 0 0.0
14 22:56 SW 12 0.75 Fog/Mist OVC003 72 71.1 97% 0 0.0
14 21:56 SW 12 10.00 Fair CLR 73 71.1 94% 0 0.0
14 20:56 SW 12 10.00 Fair CLR 73.9 69.1 85% 0 0.0
14 19:56 SW 14 10.00 Fair CLR 75 69.1 84.9 75 82% 75 0 0.0
14 18:56 SW 15 10.00 Fair CLR 79 70 74% 82 0 0.0
14 17:56 SW 10 10.00 Fair CLR 81 66.9 62% 83 0 0.0
14 16:56 SW 13 10.00 Fair CLR 82.9 62.1 49% 84 0 0.0
14 15:56 SW 10 10.00 Fair CLR 84.9 61 45% 85 0 0.0
14 14:56 W 12 10.00 Fair CLR 84 59 43% 84 0 0.0
14 13:56 W 10 10.00 Fair CLR 82.9 62.1 84.9 71.1 49% 84 0 0.0
14 12:56 W 8 10.00 Fair CLR 82 64.9 56% 84 0 0.0
14 11:56 SW 8 10.00 Fair CLR 82 71.1 69% 86 0 0.0
14 10:56 N 3 10.00 Fair CLR 80.1 71.1 74% 84 0 0.0
14 09:56 Vrbl 5 10.00 A Few Clouds FEW080 78.1 71.1 79% 80 0 0.0
14 08:56 W 7 9.00 Mostly Cloudy BKN002 72 70 94% 0 0.0
14 07:56 Calm 10.00 A Few Clouds FEW002 72 71.1 72 66.9 97% 0 0.0
14 06:56 W 7 0.25 Fog OVC002 69.1 68 96% 0 0.0
14 05:56 W 8 0.25 Fog OVC002 68 68 100% 0 0.0
14 04:56 W 8 0.25 Fog OVC002 69.1 68 96% 0 0.0
14 03:56 W 10 0.25 Fog OVC002 69.1 69.1 100% 0 0.0
14 02:56 W 12 0.75 Fog/Mist OVC002 68 68 100% 0 0.0
14 01:56 SW 7 0.50 Fog OVC002 68 66.9 71.1 68 96% 0 0.0
14 00:56 W 8 0.50 Fog OVC002 69.1 68 96% 0 0.0
13 23:56 W 8 0.75 Light Rain Fog/Mist OVC002 69.1 69.1 100% 0 0.0
13 22:56 W 8 0.25 Light Rain Fog OVC002 70 69.1 97% 0 0.0
13 21:56 W 10 10.00 Overcast OVC007 71.1 70 96% 0 0.0
13 20:56 SW 13 8.00 Overcast BKN001 OVC011 71.1 70 96% 0 0.0
13 19:56 SW 10 1.00 Fog/Mist OVC003 71.1 70 73.9 71.1 96% 0 0.0
13 18:56 SW 12 10.00 Overcast BKN003 OVC011 72 71.1 97% 0 0.0
13 17:56 SW 12 10.00 Overcast BKN005 OVC013 73.9 72 94% 0 0.0
13 16:56 SW 9 10.00 Overcast OVC002 73 72 96% 0 0.0
13 15:56 S 8 10.00 Mostly Cloudy BKN004 BKN050 BKN085 73.9 73 97% 0 0.0
13 14:56 SW 7 10.00 Light Rain FEW004 BKN070 OVC090 73 72 96% 0 0.0
13 13:56 SW 9 7.00 Light Rain BKN060 OVC070 73 72 77 71.1 96% 0 0.0
13 12:56 S 7 10.00 Light Rain FEW027 SCT050 OVC070 73 72 96% 0 0.0
13 11:56 SW 7 10.00 Partly Cloudy SCT007 75.9 73 91% 76 0 0.0
13 10:56 W 5 10.00 Overcast SCT002 OVC009 72 71.1 97% 0 0.0
13 09:56 W 8 2.50 Light Rain Fog/Mist BKN002 BKN014 OVC027 72 72 100% 0 0.0
13 08:54 SW 10 10.00 Overcast SCT002 BKN030 OVC042 75 72 90% 74 0 0.0
13 07:56 SW 10 3.00 Fog/Mist OVC002 72 72 73 71.1 100% 0 0.0
13 06:56 SW 12 3.00 Fog/Mist OVC002 72 71.1 97% 0 0.0
13 05:56 SW 10 4.00 Fog/Mist OVC004 72 72 100% 0 0.0
13 04:56 SW 12 7.00 Overcast OVC004 72 72 100% 0 0.0
13 03:56 SW 14 6.00 Fog/Mist OVC002 72 72 100% 0 0.0
13 02:56 SW 9 1.75 Fog/Mist OVC002 72 72 100% 0 0.0
13 01:56 SW 13 5.00 Fog/Mist OVC002 72 71.1 73.9 72 97% 0 0.0
13 00:56 SW 10 7.00 Overcast BKN004 OVC022 72 71.1 97% 0 0.0
12 23:56 SW 12 9.00 Overcast OVC008 73.9 73 97% 0 0.0
12 22:56 SW 15 10.00 Overcast BKN010 OVC020 73.9 73 97% 0 0.0
12 21:56 SW 12 8.00 Overcast OVC006 73 72 96% 0 0.0
12 20:56 SW 10 8.00 Overcast FEW005 BKN010 OVC014 73.9 72 94% 0 0.0
12 19:56 SW 12 8.00 Overcast BKN007 BKN028 OVC038 73.9 73 80.1 73 97% 0 0.0
12 18:56 SW 13 8.00 Overcast OVC005 73.9 72 94% 0 0.0
12 17:56 SW 16 10.00 Mostly Cloudy BKN015 BKN041 77 73 88% 78 0 0.0
12 16:56 S 16 G 23 9.00 Mostly Cloudy BKN033 78.1 73 85% 81 0 0.0
12 15:56 S 17 G 24 10.00 Mostly Cloudy SCT027 BKN035 79 73.9 85% 83 0 0.0
12 14:56 S 17 G 23 10.00 Fair CLR 79 73.9 85% 83 0 0.0
12 13:56 SW 17 G 22 10.00 Partly Cloudy FEW040 SCT050 80.1 73.9 80.1 70 82% 85 0 0.0
12 12:56 S 17 G 22 9.00 Overcast BKN006 OVC017 79 73.9 85% 83 0 0.0
12 11:56 S 12 10.00 Overcast OVC006 75.9 73 91% 76 0 0.0
12 10:56 SW 9 10.00 Overcast OVC002 75.9 73.9 94% 75 0 0.0
12 09:56 SW 9 1.00 Fog/Mist OVC002 73.9 73 97% 0 0.0
12 08:56 SW 8 1.25 Fog/Mist OVC002 71.1 71.1 100% 0 0.0
12 07:56 SW 9 2.50 Light Rain Fog/Mist SCT002 BKN007 OVC032 70 70 71.1 69.1 100% 0 0.0
12 06:56 S 9 10.00 Mostly Cloudy SCT041 BKN060 BKN110 69.1 68 96% 0 0.0
12 05:56 SW 13 10.00 Overcast BKN039 OVC049 71.1 70 96% 0 0.0
Date Time (edt) Wind (mph) Vis. (mi.) Weather Sky Cond. Air Dwpt Max. Min. Relative Humidity Wind Chill (°F) Heat Index (°F) altimeter (in) sea level (mb) 1 hr 3 hr 6 hr
6 hour
Temperature (ºF) Pressure Precipitation (in)